createdAt,value
2022-07-29T00:00:37.240Z,959.14
2022-07-29T00:01:37.238Z,959.15
2022-07-29T00:02:37.250Z,959.14
2022-07-29T00:03:37.250Z,959.11
2022-07-29T00:04:37.291Z,959.14
2022-07-29T00:05:37.198Z,959.15
2022-07-29T00:06:37.195Z,959.12
2022-07-29T00:07:37.161Z,959.12
2022-07-29T00:08:37.163Z,959.12
2022-07-29T00:09:43.071Z,959.10
2022-07-29T00:10:37.104Z,959.11
2022-07-29T00:11:37.080Z,959.09
2022-07-29T00:12:37.057Z,959.07
2022-07-29T00:13:37.071Z,959.07
2022-07-29T00:14:37.034Z,959.02
2022-07-29T00:15:37.033Z,959.04
2022-07-29T00:16:37.171Z,958.99
2022-07-29T00:17:37.009Z,959.01
2022-07-29T00:18:37.046Z,959.01
2022-07-29T00:19:37.036Z,959.00
2022-07-29T00:20:37.057Z,958.92
2022-07-29T00:21:37.026Z,958.97
2022-07-29T00:22:36.958Z,958.99
2022-07-29T00:23:37.067Z,958.97
2022-07-29T00:24:39.929Z,958.96
2022-07-29T00:25:36.942Z,958.96
2022-07-29T00:26:36.944Z,959.02
2022-07-29T00:27:36.901Z,958.94
2022-07-29T00:28:36.914Z,958.96
2022-07-29T00:29:36.883Z,958.97
2022-07-29T00:30:36.871Z,958.98
2022-07-29T00:31:36.908Z,958.95
2022-07-29T00:32:36.859Z,958.96
2022-07-29T00:33:36.865Z,958.93
2022-07-29T00:34:36.847Z,958.92
2022-07-29T00:35:36.821Z,958.92
2022-07-29T00:36:36.843Z,958.90
2022-07-29T00:37:36.803Z,958.93
2022-07-29T00:38:36.783Z,958.93
2022-07-29T00:39:39.783Z,958.94
2022-07-29T00:40:36.793Z,958.94
2022-07-29T00:41:36.873Z,958.92
2022-07-29T00:42:36.757Z,958.94
2022-07-29T00:43:36.760Z,958.94
2022-07-29T00:44:36.725Z,958.94
2022-07-29T00:45:36.724Z,958.94
2022-07-29T00:46:36.756Z,958.92
2022-07-29T00:47:36.705Z,958.94
2022-07-29T00:48:36.744Z,958.96
2022-07-29T00:49:36.676Z,958.95
2022-07-29T00:50:36.666Z,958.90
2022-07-29T00:51:36.675Z,958.87
2022-07-29T00:52:36.647Z,958.85
2022-07-29T00:53:36.645Z,958.84
2022-07-29T00:54:44.737Z,958.84
2022-07-29T00:55:36.644Z,958.80
2022-07-29T00:56:36.647Z,958.78
2022-07-29T00:57:36.589Z,958.75
2022-07-29T00:58:36.686Z,958.77
2022-07-29T00:59:36.579Z,958.68
2022-07-29T01:00:36.607Z,958.67
2022-07-29T01:01:36.607Z,958.68
2022-07-29T01:02:36.611Z,958.66
2022-07-29T01:03:36.552Z,958.68
2022-07-29T01:04:36.522Z,958.64
2022-07-29T01:05:50.070Z,958.62
2022-07-29T01:06:36.500Z,958.57
2022-07-29T01:07:36.491Z,958.57
2022-07-29T01:08:36.483Z,958.55
2022-07-29T01:09:46.138Z,958.54
2022-07-29T01:10:36.471Z,958.56
2022-07-29T01:11:36.442Z,958.56
2022-07-29T01:12:36.433Z,958.56
2022-07-29T01:13:36.472Z,958.60
2022-07-29T01:14:36.423Z,958.58
2022-07-29T01:15:36.402Z,958.57
2022-07-29T01:16:36.457Z,958.56
2022-07-29T01:17:36.388Z,958.54
2022-07-29T01:18:36.376Z,958.56
2022-07-29T01:19:36.366Z,958.53
2022-07-29T01:20:36.356Z,958.55
2022-07-29T01:21:36.345Z,958.50
2022-07-29T01:22:36.338Z,958.50
2022-07-29T01:23:36.327Z,958.49
2022-07-29T01:24:39.327Z,958.49
2022-07-29T01:25:36.335Z,958.49
2022-07-29T01:26:36.297Z,958.47
2022-07-29T01:27:36.311Z,958.50
2022-07-29T01:28:36.284Z,958.50
2022-07-29T01:29:39.016Z,958.51
2022-07-29T01:30:36.251Z,958.50
2022-07-29T01:31:36.510Z,958.46
2022-07-29T01:32:37.253Z,958.46
2022-07-29T01:33:36.229Z,958.43
2022-07-29T01:34:36.220Z,958.43
2022-07-29T01:35:36.200Z,958.41
2022-07-29T01:36:36.196Z,958.41
2022-07-29T01:37:36.180Z,958.40
2022-07-29T01:38:36.190Z,958.43
2022-07-29T01:39:39.173Z,958.43
2022-07-29T01:40:36.162Z,958.42
2022-07-29T01:41:36.139Z,958.46
2022-07-29T01:42:36.134Z,958.44
2022-07-29T01:43:36.137Z,958.46
2022-07-29T01:44:36.114Z,958.44
2022-07-29T01:45:36.152Z,958.42
2022-07-29T01:46:36.151Z,958.39
2022-07-29T01:47:36.082Z,958.42
2022-07-29T01:48:36.121Z,958.43
2022-07-29T01:49:36.055Z,958.41
2022-07-29T01:50:36.044Z,958.39
2022-07-29T01:51:36.066Z,958.41
2022-07-29T01:52:36.040Z,958.42
2022-07-29T01:53:37.978Z,958.42
2022-07-29T01:54:39.006Z,958.37
2022-07-29T01:55:36.042Z,958.38
2022-07-29T01:56:35.985Z,958.38
2022-07-29T01:57:35.980Z,958.39
2022-07-29T01:58:35.968Z,958.37
2022-07-29T01:59:35.966Z,958.41
2022-07-29T02:00:35.960Z,958.39
2022-07-29T02:01:36.008Z,958.37
2022-07-29T02:02:35.928Z,958.34
2022-07-29T02:03:35.916Z,958.34
2022-07-29T02:04:35.959Z,958.33
2022-07-29T02:05:35.890Z,958.33
2022-07-29T02:06:35.881Z,958.34
2022-07-29T02:07:35.891Z,958.35
2022-07-29T02:08:35.861Z,958.37
2022-07-29T02:09:38.857Z,958.39
2022-07-29T02:10:35.860Z,958.42
2022-07-29T02:11:35.828Z,958.40
2022-07-29T02:12:35.853Z,958.44
2022-07-29T02:13:35.813Z,958.46
2022-07-29T02:14:35.793Z,958.47
2022-07-29T02:15:35.842Z,958.49
2022-07-29T02:16:35.794Z,958.53
2022-07-29T02:17:35.774Z,958.54
2022-07-29T02:18:35.753Z,958.51
2022-07-29T02:19:35.773Z,958.54
2022-07-29T02:20:35.766Z,958.55
2022-07-29T02:21:35.723Z,958.55
2022-07-29T02:22:35.713Z,958.59
2022-07-29T02:23:50.270Z,958.58
2022-07-29T02:24:39.713Z,958.57
2022-07-29T02:25:38.309Z,958.58
2022-07-29T02:26:35.675Z,958.56
2022-07-29T02:27:35.667Z,958.49
2022-07-29T02:28:35.655Z,958.50
2022-07-29T02:29:35.666Z,958.45
2022-07-29T02:30:35.626Z,958.46
2022-07-29T02:31:35.706Z,958.46
2022-07-29T02:32:35.607Z,958.46
2022-07-29T02:33:35.609Z,958.47
2022-07-29T02:34:35.609Z,958.49
2022-07-29T02:35:35.588Z,958.52
2022-07-29T02:36:35.570Z,958.52
2022-07-29T02:37:35.581Z,958.53
2022-07-29T02:38:35.544Z,958.52
2022-07-29T02:39:38.554Z,958.54
2022-07-29T02:40:35.553Z,958.53
2022-07-29T02:41:35.530Z,958.50
2022-07-29T02:42:35.514Z,958.52
2022-07-29T02:43:35.503Z,958.47
2022-07-29T02:44:35.498Z,958.47
2022-07-29T02:45:35.483Z,958.43
2022-07-29T02:46:35.513Z,958.42
2022-07-29T02:47:41.578Z,958.40
2022-07-29T02:48:35.444Z,958.45
2022-07-29T02:49:35.631Z,958.43
2022-07-29T02:50:35.425Z,958.46
2022-07-29T02:51:44.084Z,958.45
2022-07-29T02:52:35.406Z,958.46
2022-07-29T02:53:35.397Z,958.48
2022-07-29T02:54:38.515Z,958.47
2022-07-29T02:55:35.414Z,958.49
2022-07-29T02:56:35.365Z,958.45
2022-07-29T02:57:35.386Z,958.43
2022-07-29T02:58:36.344Z,958.41
2022-07-29T02:59:35.335Z,958.40
2022-07-29T03:00:35.330Z,958.42
2022-07-29T03:01:35.330Z,958.41
2022-07-29T03:02:35.332Z,958.41
2022-07-29T03:03:35.298Z,958.43
2022-07-29T03:04:35.327Z,958.46
2022-07-29T03:05:35.280Z,958.46
2022-07-29T03:06:38.307Z,958.49
2022-07-29T03:07:35.249Z,958.49
2022-07-29T03:08:35.238Z,958.49
2022-07-29T03:09:38.229Z,958.48
2022-07-29T03:10:35.254Z,958.46
2022-07-29T03:11:46.397Z,958.48
2022-07-29T03:12:35.202Z,958.47
2022-07-29T03:13:35.190Z,958.47
2022-07-29T03:14:35.172Z,958.49
2022-07-29T03:15:35.233Z,958.51
2022-07-29T03:16:39.385Z,958.48
2022-07-29T03:17:35.150Z,958.49
2022-07-29T03:18:35.141Z,958.47
2022-07-29T03:19:35.156Z,958.48
2022-07-29T03:20:35.132Z,958.45
2022-07-29T03:21:35.187Z,958.45
2022-07-29T03:22:35.083Z,958.47
2022-07-29T03:23:36.816Z,958.47
2022-07-29T03:24:38.022Z,958.50
2022-07-29T03:25:35.026Z,958.54
2022-07-29T03:26:35.006Z,958.51
2022-07-29T03:27:35.034Z,958.56
2022-07-29T03:28:35.074Z,958.58
2022-07-29T03:29:34.975Z,958.64
2022-07-29T03:30:34.953Z,958.65
2022-07-29T03:31:34.992Z,958.68
2022-07-29T03:32:34.935Z,958.67
2022-07-29T03:33:34.925Z,958.70
2022-07-29T03:34:34.917Z,958.73
2022-07-29T03:35:34.905Z,958.81
2022-07-29T03:36:34.921Z,958.80
2022-07-29T03:37:34.880Z,958.82
2022-07-29T03:38:34.867Z,958.86
2022-07-29T03:39:37.903Z,958.86
2022-07-29T03:40:34.885Z,958.88
2022-07-29T03:41:34.987Z,958.89
2022-07-29T03:42:34.839Z,958.87
2022-07-29T03:43:34.836Z,958.92
2022-07-29T03:44:35.809Z,958.97
2022-07-29T03:45:34.802Z,958.94
2022-07-29T03:46:34.871Z,958.91
2022-07-29T03:47:49.616Z,958.93
2022-07-29T03:48:35.961Z,958.86
2022-07-29T03:49:34.755Z,958.84
2022-07-29T03:50:34.752Z,958.83
2022-07-29T03:51:34.741Z,958.81
2022-07-29T03:52:34.721Z,958.78
2022-07-29T03:53:34.717Z,958.71
2022-07-29T03:54:37.719Z,958.68
2022-07-29T03:55:34.710Z,958.65
2022-07-29T03:56:34.708Z,958.62
2022-07-29T03:57:34.673Z,958.66
2022-07-29T03:58:34.672Z,958.74
2022-07-29T03:59:34.653Z,958.81
2022-07-29T04:00:34.633Z,958.85
2022-07-29T04:01:34.695Z,958.79
2022-07-29T04:02:34.635Z,958.80
2022-07-29T04:03:34.689Z,958.84
2022-07-29T04:04:34.596Z,958.78
2022-07-29T04:05:34.599Z,958.75
2022-07-29T04:06:34.585Z,958.72
2022-07-29T04:07:34.565Z,958.63
2022-07-29T04:08:34.546Z,958.65
2022-07-29T04:09:37.555Z,958.63
2022-07-29T04:10:35.857Z,958.63
2022-07-29T04:11:34.562Z,958.65
2022-07-29T04:12:35.518Z,958.65
2022-07-29T04:13:34.517Z,958.61
2022-07-29T04:14:34.494Z,958.56
2022-07-29T04:15:34.552Z,958.55
2022-07-29T04:16:34.529Z,958.56
2022-07-29T04:17:34.468Z,958.49
2022-07-29T04:18:34.503Z,958.44
2022-07-29T04:19:34.453Z,958.48
2022-07-29T04:20:34.431Z,958.50
2022-07-29T04:21:34.429Z,958.55
2022-07-29T04:22:34.411Z,958.53
2022-07-29T04:23:34.414Z,958.57
2022-07-29T04:24:38.390Z,958.62
2022-07-29T04:25:34.400Z,958.64
2022-07-29T04:26:34.402Z,958.68
2022-07-29T04:27:34.359Z,958.76
2022-07-29T04:28:34.352Z,958.73
2022-07-29T04:29:34.339Z,958.71
2022-07-29T04:30:35.343Z,958.70
2022-07-29T04:31:34.445Z,958.71
2022-07-29T04:32:34.316Z,958.68
2022-07-29T04:33:34.327Z,958.68
2022-07-29T04:34:34.292Z,958.67
2022-07-29T04:35:37.934Z,958.70
2022-07-29T04:36:34.271Z,958.63
2022-07-29T04:37:34.256Z,958.66
2022-07-29T04:38:34.264Z,958.65
2022-07-29T04:39:37.234Z,958.60
2022-07-29T04:40:34.237Z,958.61
2022-07-29T04:41:34.538Z,958.61
2022-07-29T04:42:34.215Z,958.63
2022-07-29T04:43:36.960Z,958.63
2022-07-29T04:44:34.190Z,958.60
2022-07-29T04:45:34.178Z,958.63
2022-07-29T04:46:34.245Z,958.57
2022-07-29T04:47:34.160Z,958.63
2022-07-29T04:48:34.148Z,958.58
2022-07-29T04:49:34.129Z,958.63
2022-07-29T04:50:34.119Z,958.65
2022-07-29T04:51:34.212Z,958.64
2022-07-29T04:52:34.107Z,958.65
2022-07-29T04:53:34.092Z,958.64
2022-07-29T04:54:37.082Z,958.59
2022-07-29T04:55:34.143Z,958.58
2022-07-29T04:56:34.071Z,958.60
2022-07-29T04:57:34.049Z,958.57
2022-07-29T04:58:34.046Z,958.56
2022-07-29T04:59:34.020Z,958.52
2022-07-29T05:00:34.023Z,958.53
2022-07-29T05:01:34.089Z,958.49
2022-07-29T05:02:34.059Z,958.50
2022-07-29T05:03:34.022Z,958.45
2022-07-29T05:04:33.981Z,958.45
2022-07-29T05:05:33.965Z,958.42
2022-07-29T05:06:33.963Z,958.42
2022-07-29T05:07:33.947Z,958.43
2022-07-29T05:08:33.934Z,958.43
2022-07-29T05:09:36.934Z,958.50
2022-07-29T05:10:33.963Z,958.53
2022-07-29T05:11:33.913Z,958.53
2022-07-29T05:12:33.906Z,958.64
2022-07-29T05:13:46.303Z,958.67
2022-07-29T05:14:33.876Z,958.72
2022-07-29T05:15:33.882Z,958.71
2022-07-29T05:16:33.855Z,958.68
2022-07-29T05:17:33.836Z,958.72
2022-07-29T05:18:33.829Z,958.66
2022-07-29T05:19:33.826Z,958.68
2022-07-29T05:20:33.808Z,958.66
2022-07-29T05:21:33.787Z,958.63
2022-07-29T05:22:33.787Z,958.65
2022-07-29T05:23:33.806Z,958.64
2022-07-29T05:24:36.773Z,958.68
2022-07-29T05:25:44.251Z,958.68
2022-07-29T05:26:33.751Z,958.72
2022-07-29T05:27:33.740Z,958.68
2022-07-29T05:28:33.730Z,958.64
2022-07-29T05:29:44.298Z,958.64
2022-07-29T05:30:33.711Z,958.69
2022-07-29T05:31:33.700Z,958.65
2022-07-29T05:32:33.713Z,958.66
2022-07-29T05:33:36.474Z,958.67
2022-07-29T05:34:33.667Z,958.67
2022-07-29T05:35:33.658Z,958.66
2022-07-29T05:36:33.646Z,958.68
2022-07-29T05:37:33.651Z,958.72
2022-07-29T05:38:33.638Z,958.74
2022-07-29T05:39:48.934Z,958.79
2022-07-29T05:40:33.615Z,958.82
2022-07-29T05:41:33.608Z,958.83
2022-07-29T05:42:33.584Z,958.78
2022-07-29T05:43:33.564Z,958.75
2022-07-29T05:44:33.564Z,958.78
2022-07-29T05:45:33.581Z,958.78
2022-07-29T05:46:34.587Z,958.79
2022-07-29T05:47:33.526Z,958.84
2022-07-29T05:48:33.519Z,958.76
2022-07-29T05:49:33.557Z,958.78
2022-07-29T05:50:33.536Z,958.81
2022-07-29T05:51:34.492Z,958.82
2022-07-29T05:52:33.472Z,958.82
2022-07-29T05:53:33.469Z,958.82
2022-07-29T05:54:36.450Z,958.82
2022-07-29T05:55:33.483Z,958.81
2022-07-29T05:56:33.441Z,958.83
2022-07-29T05:57:33.461Z,958.85
2022-07-29T05:58:33.409Z,958.85
2022-07-29T05:59:33.400Z,958.85
2022-07-29T06:00:33.398Z,958.83
2022-07-29T06:01:33.451Z,958.74
2022-07-29T06:02:33.373Z,958.79
2022-07-29T06:03:33.363Z,958.80
2022-07-29T06:04:33.405Z,958.79
2022-07-29T06:05:33.376Z,958.82
2022-07-29T06:06:33.332Z,958.81
2022-07-29T06:07:33.876Z,958.79
2022-07-29T06:08:33.319Z,958.76
2022-07-29T06:09:36.526Z,958.79
2022-07-29T06:10:33.353Z,958.80
2022-07-29T06:11:33.274Z,958.85
2022-07-29T06:12:33.273Z,958.84
2022-07-29T06:13:33.265Z,958.88
2022-07-29T06:14:33.247Z,958.91
2022-07-29T06:15:33.323Z,958.90
2022-07-29T06:16:33.295Z,958.90
2022-07-29T06:17:33.228Z,958.90
2022-07-29T06:18:33.247Z,958.88
2022-07-29T06:19:33.197Z,958.92
2022-07-29T06:20:33.297Z,958.89
2022-07-29T06:21:33.168Z,958.92
2022-07-29T06:22:33.166Z,958.95
2022-07-29T06:23:33.188Z,958.95
2022-07-29T06:24:36.138Z,958.93
2022-07-29T06:25:33.155Z,958.99
2022-07-29T06:26:37.775Z,958.97
2022-07-29T06:27:33.133Z,959.01
2022-07-29T06:28:33.117Z,959.03
2022-07-29T06:29:33.098Z,959.04
2022-07-29T06:30:33.155Z,959.07
2022-07-29T06:31:33.075Z,959.10
2022-07-29T06:32:33.083Z,959.12
2022-07-29T06:33:33.053Z,959.08
2022-07-29T06:34:33.057Z,959.13
2022-07-29T06:35:38.536Z,959.11
2022-07-29T06:36:33.039Z,959.15
2022-07-29T06:37:33.016Z,959.19
2022-07-29T06:38:34.355Z,959.21
2022-07-29T06:39:37.014Z,959.28
2022-07-29T06:40:32.995Z,959.29
2022-07-29T06:41:32.966Z,959.31
2022-07-29T06:42:32.992Z,959.33
2022-07-29T06:43:32.942Z,959.38
2022-07-29T06:44:33.945Z,959.44
2022-07-29T06:45:32.924Z,959.42
2022-07-29T06:46:32.997Z,959.41
2022-07-29T06:47:32.903Z,959.44
2022-07-29T06:48:32.900Z,959.45
2022-07-29T06:49:32.977Z,959.49
2022-07-29T06:50:32.907Z,959.49
2022-07-29T06:51:32.928Z,959.50
2022-07-29T06:52:32.869Z,959.49
2022-07-29T06:53:32.849Z,959.58
2022-07-29T06:54:35.848Z,959.72
2022-07-29T06:55:32.929Z,959.75
2022-07-29T06:56:38.250Z,959.77
2022-07-29T06:57:32.804Z,959.82
2022-07-29T06:58:32.778Z,959.96
2022-07-29T06:59:35.762Z,959.98
2022-07-29T07:00:32.775Z,959.92
2022-07-29T07:01:32.831Z,959.88
2022-07-29T07:02:32.790Z,959.89
2022-07-29T07:03:32.748Z,959.92
2022-07-29T07:04:32.731Z,959.96
2022-07-29T07:05:32.722Z,959.95
2022-07-29T07:06:32.713Z,959.88
2022-07-29T07:07:32.721Z,959.87
2022-07-29T07:08:32.692Z,959.89
2022-07-29T07:09:40.689Z,959.91
2022-07-29T07:10:32.687Z,959.94
2022-07-29T07:11:32.662Z,959.96
2022-07-29T07:12:32.670Z,959.96
2022-07-29T07:13:32.632Z,959.98
2022-07-29T07:14:32.636Z,959.99
2022-07-29T07:15:39.096Z,959.97
2022-07-29T07:16:32.914Z,959.92
2022-07-29T07:17:32.583Z,959.94
2022-07-29T07:18:32.586Z,959.95
2022-07-29T07:19:32.582Z,959.90
2022-07-29T07:20:32.578Z,959.89
2022-07-29T07:21:32.595Z,959.87
2022-07-29T07:22:35.729Z,959.87
2022-07-29T07:23:32.524Z,959.82
2022-07-29T07:24:35.526Z,959.79
2022-07-29T07:25:32.539Z,959.75
2022-07-29T07:26:32.506Z,959.69
2022-07-29T07:27:32.488Z,959.73
2022-07-29T07:28:32.486Z,959.69
2022-07-29T07:29:32.466Z,959.67
2022-07-29T07:30:32.469Z,959.66
2022-07-29T07:31:32.501Z,959.70
2022-07-29T07:32:32.468Z,959.66
2022-07-29T07:33:32.432Z,959.62
2022-07-29T07:34:32.451Z,959.67
2022-07-29T07:35:32.410Z,959.71
2022-07-29T07:36:32.401Z,959.75
2022-07-29T07:37:32.400Z,959.78
2022-07-29T07:38:32.382Z,959.83
2022-07-29T07:39:35.402Z,959.86
2022-07-29T07:40:32.388Z,959.81
2022-07-29T07:41:32.724Z,959.76
2022-07-29T07:42:32.345Z,959.67
2022-07-29T07:43:32.327Z,959.62
2022-07-29T07:44:32.328Z,959.59
2022-07-29T07:45:33.329Z,959.51
2022-07-29T07:46:32.342Z,959.54
2022-07-29T07:47:32.291Z,959.54
2022-07-29T07:48:32.281Z,959.50
2022-07-29T07:49:32.265Z,959.52
2022-07-29T07:50:32.258Z,959.52
2022-07-29T07:51:32.283Z,959.54
2022-07-29T07:52:32.247Z,959.49
2022-07-29T07:53:32.488Z,959.49
2022-07-29T07:54:35.219Z,959.54
2022-07-29T07:55:53.401Z,959.54
2022-07-29T07:56:35.347Z,959.57
2022-07-29T07:57:32.180Z,959.55
2022-07-29T07:58:32.184Z,959.53
2022-07-29T07:59:32.169Z,959.54
2022-07-29T08:00:32.150Z,959.54
2022-07-29T08:01:55.740Z,959.53
2022-07-29T08:02:33.184Z,959.57
2022-07-29T08:03:32.121Z,959.59
2022-07-29T08:04:32.122Z,959.70
2022-07-29T08:05:32.109Z,959.69
2022-07-29T08:06:32.125Z,959.74
2022-07-29T08:07:32.082Z,959.74
2022-07-29T08:08:32.075Z,959.80
2022-07-29T08:09:35.068Z,959.80
2022-07-29T08:10:32.102Z,959.83
2022-07-29T08:11:34.070Z,959.88
2022-07-29T08:12:33.034Z,959.87
2022-07-29T08:13:32.036Z,959.87
2022-07-29T08:14:32.018Z,959.98
2022-07-29T08:15:31.997Z,960.01
2022-07-29T08:16:32.036Z,959.97
2022-07-29T08:17:31.986Z,959.99
2022-07-29T08:18:31.981Z,959.97
2022-07-29T08:19:31.967Z,959.98
2022-07-29T08:20:31.948Z,960.03
2022-07-29T08:21:31.984Z,959.93
2022-07-29T08:22:31.943Z,959.96
2022-07-29T08:23:46.259Z,959.92
2022-07-29T08:24:35.917Z,959.90
2022-07-29T08:25:31.924Z,959.92
2022-07-29T08:26:31.886Z,959.87
2022-07-29T08:27:43.347Z,959.88
2022-07-29T08:28:31.879Z,959.87
2022-07-29T08:29:31.850Z,959.88
2022-07-29T08:30:31.845Z,959.86
2022-07-29T08:31:31.897Z,959.84
2022-07-29T08:32:52.699Z,959.81
2022-07-29T08:33:32.812Z,959.81
2022-07-29T08:34:31.810Z,959.82
2022-07-29T08:35:35.561Z,959.85
2022-07-29T08:36:31.802Z,959.93
2022-07-29T08:37:31.782Z,959.97
2022-07-29T08:38:31.765Z,959.99
2022-07-29T08:39:34.785Z,960.05
2022-07-29T08:40:32.470Z,960.03
2022-07-29T08:41:31.793Z,960.03
2022-07-29T08:42:31.721Z,960.07
2022-07-29T08:43:31.707Z,960.10
2022-07-29T08:44:31.727Z,960.14
2022-07-29T08:45:31.717Z,960.13
2022-07-29T08:46:31.727Z,960.11
2022-07-29T08:47:31.677Z,960.12
2022-07-29T08:48:31.669Z,960.10
2022-07-29T08:49:31.657Z,960.12
2022-07-29T08:50:31.646Z,960.06
2022-07-29T08:51:31.636Z,960.02
2022-07-29T08:52:31.626Z,960.04
2022-07-29T08:53:31.635Z,960.01
2022-07-29T08:54:34.604Z,960.04
2022-07-29T08:55:31.599Z,960.08
2022-07-29T08:56:31.585Z,960.14
2022-07-29T08:57:31.569Z,960.14
2022-07-29T08:58:31.560Z,960.12
2022-07-29T08:59:31.558Z,960.13
2022-07-29T09:00:31.558Z,960.09
2022-07-29T09:01:35.563Z,960.16
2022-07-29T09:02:31.519Z,960.11
2022-07-29T09:03:31.596Z,960.20
2022-07-29T09:04:31.489Z,960.18
2022-07-29T09:05:31.482Z,960.18
2022-07-29T09:06:31.478Z,960.21
2022-07-29T09:07:34.795Z,960.23
2022-07-29T09:08:31.502Z,960.25
2022-07-29T09:09:34.442Z,960.23
2022-07-29T09:10:31.476Z,960.23
2022-07-29T09:11:31.424Z,960.18
2022-07-29T09:12:36.127Z,960.16
2022-07-29T09:13:31.421Z,960.14
2022-07-29T09:14:31.396Z,960.12
2022-07-29T09:15:31.404Z,960.13
2022-07-29T09:16:51.929Z,960.16
2022-07-29T09:17:32.391Z,960.07
2022-07-29T09:18:31.732Z,960.12
2022-07-29T09:19:31.345Z,960.14
2022-07-29T09:20:31.336Z,960.10
2022-07-29T09:21:31.318Z,960.10
2022-07-29T09:22:31.308Z,960.10
2022-07-29T09:23:31.298Z,960.07
2022-07-29T09:24:34.328Z,960.07
2022-07-29T09:25:31.303Z,960.06
2022-07-29T09:26:31.269Z,960.01
2022-07-29T09:27:32.207Z,960.03
2022-07-29T09:28:31.261Z,960.01
2022-07-29T09:29:35.825Z,960.02
2022-07-29T09:30:31.871Z,960.02
2022-07-29T09:31:31.277Z,960.04
2022-07-29T09:32:31.213Z,960.06
2022-07-29T09:33:31.206Z,960.11
2022-07-29T09:34:35.722Z,960.13
2022-07-29T09:35:31.180Z,960.15
2022-07-29T09:36:31.164Z,960.10
2022-07-29T09:37:31.156Z,960.08
2022-07-29T09:38:31.144Z,960.05
2022-07-29T09:39:34.185Z,960.02
2022-07-29T09:40:31.148Z,960.05
2022-07-29T09:41:31.113Z,960.06
2022-07-29T09:42:31.118Z,959.99
2022-07-29T09:43:31.103Z,960.02
2022-07-29T09:44:31.088Z,960.04
2022-07-29T09:45:31.097Z,960.07
2022-07-29T09:46:31.117Z,960.05
2022-07-29T09:47:31.059Z,960.08
2022-07-29T09:48:31.046Z,960.05
2022-07-29T09:49:31.032Z,960.07
2022-07-29T09:50:31.048Z,960.07
2022-07-29T09:51:38.477Z,960.04
2022-07-29T09:52:31.007Z,959.99
2022-07-29T09:53:30.990Z,959.99
2022-07-29T09:54:33.990Z,959.98
2022-07-29T09:55:31.029Z,960.00
2022-07-29T09:56:30.979Z,960.01
2022-07-29T09:57:31.483Z,959.96
2022-07-29T09:58:30.941Z,959.96
2022-07-29T09:59:30.928Z,959.94
2022-07-29T10:00:30.977Z,959.92
2022-07-29T10:01:30.911Z,959.93
2022-07-29T10:02:30.894Z,959.92
2022-07-29T10:03:30.974Z,959.93
2022-07-29T10:04:30.873Z,959.93
2022-07-29T10:05:36.728Z,959.97
2022-07-29T10:06:30.855Z,959.92
2022-07-29T10:07:30.860Z,959.91
2022-07-29T10:08:30.824Z,959.90
2022-07-29T10:09:33.823Z,959.87
2022-07-29T10:10:30.875Z,959.85
2022-07-29T10:11:35.417Z,959.90
2022-07-29T10:12:31.794Z,959.88
2022-07-29T10:13:30.796Z,959.88
2022-07-29T10:14:30.781Z,959.88
2022-07-29T10:15:30.790Z,959.85
2022-07-29T10:16:30.834Z,959.86
2022-07-29T10:17:30.740Z,959.88
2022-07-29T10:18:30.730Z,959.81
2022-07-29T10:19:30.719Z,959.80
2022-07-29T10:20:30.717Z,959.74
2022-07-29T10:21:35.225Z,959.73
2022-07-29T10:22:51.960Z,959.71
2022-07-29T10:23:46.401Z,959.71
2022-07-29T10:24:33.670Z,959.66
2022-07-29T10:25:30.671Z,959.63
2022-07-29T10:26:30.691Z,959.66
2022-07-29T10:27:30.644Z,959.59
2022-07-29T10:28:30.623Z,959.63
2022-07-29T10:29:30.618Z,959.62
2022-07-29T10:30:30.606Z,959.63
2022-07-29T10:31:30.708Z,959.65
2022-07-29T10:32:30.581Z,959.63
2022-07-29T10:33:30.577Z,959.66
2022-07-29T10:34:30.555Z,959.66
2022-07-29T10:35:30.562Z,959.74
2022-07-29T10:36:30.562Z,959.70
2022-07-29T10:37:36.144Z,959.71
2022-07-29T10:38:31.532Z,959.64
2022-07-29T10:39:41.879Z,959.73
2022-07-29T10:40:30.519Z,959.69
2022-07-29T10:41:32.407Z,959.71
2022-07-29T10:42:33.352Z,959.70
2022-07-29T10:43:30.469Z,959.70
2022-07-29T10:44:30.462Z,959.67
2022-07-29T10:45:30.455Z,959.64
2022-07-29T10:46:30.464Z,959.60
2022-07-29T10:47:30.472Z,959.56
2022-07-29T10:48:30.508Z,959.52
2022-07-29T10:49:30.963Z,959.52
2022-07-29T10:50:30.409Z,959.53
2022-07-29T10:51:30.389Z,959.46
2022-07-29T10:52:30.454Z,959.48
2022-07-29T10:53:33.873Z,959.43
2022-07-29T10:54:33.360Z,959.52
2022-07-29T10:55:30.353Z,959.50
2022-07-29T10:56:30.351Z,959.51
2022-07-29T10:57:53.751Z,959.56
2022-07-29T10:58:31.343Z,959.57
2022-07-29T10:59:32.360Z,959.60
2022-07-29T11:00:30.294Z,959.56
2022-07-29T11:02:41.954Z,959.62
2022-07-29T11:03:30.359Z,959.59
2022-07-29T11:04:30.255Z,959.58
2022-07-29T11:05:40.111Z,959.58
2022-07-29T11:06:30.235Z,959.55
2022-07-29T11:07:45.615Z,959.57
2022-07-29T11:08:31.234Z,959.56
2022-07-29T11:09:37.447Z,959.56
2022-07-29T11:10:31.671Z,959.55
2022-07-29T11:11:30.176Z,959.56
2022-07-29T11:12:30.173Z,959.51
2022-07-29T11:13:30.150Z,959.53
2022-07-29T11:14:30.187Z,959.57
2022-07-29T11:15:31.619Z,959.60
2022-07-29T11:16:30.138Z,959.62
2022-07-29T11:17:46.942Z,959.62
2022-07-29T11:18:31.137Z,959.61
2022-07-29T11:19:30.841Z,959.61
2022-07-29T11:20:30.120Z,959.63
2022-07-29T11:21:35.948Z,959.61
2022-07-29T11:22:31.074Z,959.56
2022-07-29T11:23:34.069Z,959.57
2022-07-29T11:24:33.168Z,959.59
2022-07-29T11:25:42.503Z,959.57
2022-07-29T11:26:31.026Z,959.56
2022-07-29T11:27:30.021Z,959.59
2022-07-29T11:28:30.004Z,959.62
2022-07-29T11:29:29.988Z,959.58
2022-07-29T11:30:29.985Z,959.59
2022-07-29T11:31:29.978Z,959.54
2022-07-29T11:32:29.966Z,959.52
2022-07-29T11:34:30.939Z,959.51
2022-07-29T11:35:38.534Z,959.51
2022-07-29T11:36:29.920Z,959.50
2022-07-29T11:37:29.910Z,959.48
2022-07-29T11:38:31.980Z,959.48
2022-07-29T11:39:37.059Z,959.51
2022-07-29T11:40:29.958Z,959.51
2022-07-29T11:41:29.858Z,959.51
2022-07-29T11:42:34.448Z,959.46
2022-07-29T11:43:30.849Z,959.49
2022-07-29T11:44:29.846Z,959.48
2022-07-29T11:45:42.848Z,959.48
2022-07-29T11:46:29.804Z,959.45
2022-07-29T11:47:29.828Z,959.41
2022-07-29T11:49:32.073Z,959.40
2022-07-29T11:50:29.774Z,959.43
2022-07-29T11:51:32.999Z,959.44
2022-07-29T11:52:29.764Z,959.46
2022-07-29T11:53:32.567Z,959.48
2022-07-29T11:54:32.737Z,959.46
2022-07-29T11:55:32.592Z,959.45
2022-07-29T11:56:30.715Z,959.46
2022-07-29T11:57:36.158Z,959.46
2022-07-29T11:58:29.688Z,959.48
2022-07-29T11:59:33.563Z,959.49
2022-07-29T12:00:29.669Z,959.55
2022-07-29T12:01:29.670Z,959.53
2022-07-29T12:02:38.271Z,959.53
2022-07-29T12:03:35.065Z,959.44
2022-07-29T12:04:29.632Z,959.46
2022-07-29T12:05:36.933Z,959.44
2022-07-29T12:06:29.603Z,959.39
2022-07-29T12:07:02.108Z,959.41
2022-07-29T12:07:33.781Z,959.38
2022-07-29T12:08:29.602Z,959.38
2022-07-29T12:09:40.145Z,959.34
2022-07-29T12:10:30.787Z,959.38
2022-07-29T12:11:29.609Z,959.35
2022-07-29T12:12:29.545Z,959.36
2022-07-29T12:13:37.108Z,959.38
2022-07-29T12:14:29.524Z,959.38
2022-07-29T12:15:39.212Z,959.40
2022-07-29T12:16:30.562Z,959.39
2022-07-29T12:17:30.655Z,959.40
2022-07-29T12:18:29.476Z,959.40
2022-07-29T12:19:29.473Z,959.39
2022-07-29T12:20:29.461Z,959.37
2022-07-29T12:21:29.527Z,959.33
2022-07-29T12:22:29.446Z,959.37
2022-07-29T12:23:29.549Z,959.39
2022-07-29T12:24:32.416Z,959.40
2022-07-29T12:25:33.950Z,959.40
2022-07-29T12:26:29.428Z,959.43
2022-07-29T12:27:29.738Z,959.43
2022-07-29T12:28:29.377Z,959.46
2022-07-29T12:29:34.955Z,959.47
2022-07-29T12:30:29.358Z,959.46